Time;durP1;ratioP1;P1;durP2;ratioP2;P2;SDS_P1;SDS_P2;PMS_P1;PMS_P2;Temp;Humidity;BMP_temperature;BMP_pressure;BME280_temperature;BME280_humidity;BME280_pressure;Samples;Min_cycle;Max_cycle;Signal;HPM_P1;HPM_P2
2022/03/06 00:02:22;;;;;;;286.40;37.27;;;0.20;99.90;;;;;;4937366;29;20470;-76
2022/03/06 00:04:50;;;;;;;873.30;64.80;;;0.20;99.90;;;;;;4951461;28;20467;-76
2022/03/06 00:07:18;;;;;;;1012.57;54.90;;;0.20;99.90;;;;;;4956315;28;20537;-77
2022/03/06 00:09:47;;;;;;;412.97;24.40;;;0.10;99.90;;;;;;4951116;28;20822;-76
2022/03/06 00:12:15;;;;;;;299.10;61.53;;;0.10;99.90;;;;;;4937174;29;20885;-76
2022/03/06 00:14:43;;;;;;;624.03;38.53;;;0.10;99.90;;;;;;4937175;29;21008;-76
2022/03/06 00:17:11;;;;;;;1839.03;130.47;;;0.10;99.90;;;;;;4938024;29;20460;-76
2022/03/06 00:19:41;;;;;;;689.07;47.77;;;0.10;99.90;;;;;;4956189;28;20921;-76
2022/03/06 00:22:09;;;;;;;1664.17;150.73;;;0.10;99.90;;;;;;4956368;28;20461;-76
2022/03/06 00:24:37;;;;;;;1999.90;138.10;;;0.10;99.90;;;;;;4952947;28;20570;-76
2022/03/06 00:27:05;;;;;;;1530.47;95.60;;;0.10;99.90;;;;;;4936712;28;20466;-76
2022/03/06 00:29:33;;;;;;;1598.83;109.73;;;0.10;99.90;;;;;;4936793;29;20511;-76
2022/03/06 00:32:02;;;;;;;1732.83;119.80;;;0.10;99.90;;;;;;4936798;29;20451;-76
2022/03/06 00:34:30;;;;;;;308.07;42.83;;;0.10;99.90;;;;;;4936613;29;20502;-77
2022/03/06 00:37:00;;;;;;;1883.57;118.00;;;0.00;99.90;;;;;;4950393;29;21028;-76
2022/03/06 00:39:28;;;;;;;1919.10;137.40;;;0.00;99.90;;;;;;4953296;28;20518;-76
2022/03/06 00:41:56;;;;;;;1015.00;72.27;;;0.00;99.90;;;;;;4956165;29;20453;-76
2022/03/06 00:44:24;;;;;;;1999.90;170.47;;;0.00;99.90;;;;;;4953838;28;20578;-76
2022/03/06 00:46:52;;;;;;;389.27;36.13;;;0.00;99.90;;;;;;4936477;29;20452;-77
2022/03/06 00:49:20;;;;;;;366.30;34.70;;;0.00;99.90;;;;;;4936617;29;20474;-76
2022/03/06 00:51:49;;;;;;;987.07;64.17;;;0.00;99.90;;;;;;4938195;29;20868;-76
2022/03/06 00:54:19;;;;;;;327.33;55.70;;;0.00;99.90;;;;;;4936292;29;20475;-77
2022/03/06 00:56:48;;;;;;;304.80;39.47;;;0.00;99.90;;;;;;4936219;29;20530;-76
2022/03/06 00:59:17;;;;;;;1999.90;135.00;;;0.00;99.90;;;;;;4938091;29;20506;-76
2022/03/06 01:01:45;;;;;;;1274.40;87.87;;;0.00;99.90;;;;;;4947881;29;20465;-76
2022/03/06 01:04:13;;;;;;;396.43;33.97;;;-0.10;99.90;;;;;;4962927;28;20472;-76
2022/03/06 01:06:42;;;;;;;1954.47;147.80;;;-0.10;99.90;;;;;;4941720;29;20527;-76
2022/03/06 01:09:10;;;;;;;364.53;34.97;;;-0.10;99.90;;;;;;4940617;29;20562;-76
2022/03/06 01:11:40;;;;;;;1217.53;98.40;;;-0.10;99.90;;;;;;4957190;29;20448;-76
2022/03/06 01:14:08;;;;;;;1906.87;150.23;;;-0.10;99.90;;;;;;4941111;28;20478;-76
2022/03/06 01:16:36;;;;;;;463.40;46.37;;;-0.10;99.90;;;;;;4941163;28;20491;-76
2022/03/06 01:19:05;;;;;;;1664.13;133.73;;;-0.10;99.90;;;;;;4942831;29;20479;-76
2022/03/06 01:21:33;;;;;;;1357.37;114.33;;;-0.10;99.90;;;;;;4950030;29;20550;-76
2022/03/06 01:24:01;;;;;;;478.90;50.60;;;-0.10;99.90;;;;;;4962370;28;20479;-76
2022/03/06 01:26:29;;;;;;;1999.90;133.10;;;-0.10;99.90;;;;;;4962169;28;20513;-76
2022/03/06 01:28:59;;;;;;;1275.03;92.80;;;-0.10;99.90;;;;;;4963875;28;20554;-76
2022/03/06 01:31:27;;;;;;;503.80;50.83;;;-0.10;99.90;;;;;;4944737;29;20550;-76
2022/03/06 01:33:55;;;;;;;1999.90;170.00;;;-0.10;99.90;;;;;;4941258;28;20487;-76
2022/03/06 01:36:23;;;;;;;494.73;72.20;;;-0.10;99.90;;;;;;4941506;29;20442;-76
2022/03/06 01:38:51;;;;;;;1235.13;123.07;;;-0.10;99.90;;;;;;4943605;29;20450;-76
2022/03/06 01:41:20;;;;;;;729.43;88.60;;;0.00;99.90;;;;;;4954895;28;20984;-76
2022/03/06 01:43:48;;;;;;;1222.90;103.83;;;0.00;99.90;;;;;;4943251;28;20512;-76
2022/03/06 01:46:18;;;;;;;887.37;83.60;;;0.00;99.90;;;;;;4952589;29;20459;-77
2022/03/06 01:48:47;;;;;;;1696.77;180.27;;;0.00;99.90;;;;;;4955376;28;20882;-76
2022/03/06 01:51:15;;;;;;;1999.90;287.83;;;0.10;99.90;;;;;;4949391;28;20459;-77
2022/03/06 01:53:43;;;;;;;1999.90;349.17;;;0.10;99.90;;;;;;4936963;29;20551;-76
2022/03/06 01:56:13;;;;;;;1811.50;150.97;;;0.10;99.90;;;;;;4935710;29;20550;-76
2022/03/06 01:58:42;;;;;;;769.57;151.43;;;0.20;99.90;;;;;;4935663;29;20480;-76
2022/03/06 02:01:10;;;;;;;1999.90;246.13;;;0.20;99.90;;;;;;4945552;29;20443;-77
2022/03/06 02:03:40;;;;;;;1999.90;259.63;;;0.20;99.90;;;;;;4954545;28;20479;-77
2022/03/06 02:06:09;;;;;;;513.40;78.67;;;0.20;99.90;;;;;;4939033;28;20519;-76
2022/03/06 02:08:37;;;;;;;443.70;82.23;;;0.30;99.90;;;;;;4935085;29;20552;-77
2022/03/06 02:11:07;;;;;;;499.27;94.50;;;0.30;99.90;;;;;;4935112;29;20459;-77
2022/03/06 02:13:35;;;;;;;610.47;92.40;;;0.30;99.90;;;;;;4935301;28;20475;-76
2022/03/06 02:16:04;;;;;;;1999.90;299.63;;;0.30;99.90;;;;;;4935751;29;20454;-77
2022/03/06 02:18:33;;;;;;;544.73;97.33;;;0.30;99.90;;;;;;4948463;28;20828;-76
2022/03/06 02:21:07;;;;;;;618.13;116.57;;;0.30;99.90;;;;;;4938480;29;20549;-77
2022/03/06 02:23:35;;;;;;;451.60;76.40;;;0.40;99.90;;;;;;4934983;29;20482;-76
2022/03/06 02:26:04;;;;;;;525.93;86.53;;;0.40;99.90;;;;;;4934959;29;20550;-77
2022/03/06 02:28:32;;;;;;;485.10;87.73;;;0.40;99.90;;;;;;4952974;28;20451;-77
2022/03/06 02:31:01;;;;;;;510.13;92.00;;;0.40;99.90;;;;;;4957135;29;20452;-77
2022/03/06 02:33:29;;;;;;;553.23;83.57;;;0.40;99.90;;;;;;4961700;28;20467;-77
2022/03/06 02:35:58;;;;;;;493.67;90.63;;;0.40;99.90;;;;;;4954195;28;20957;-77
2022/03/06 02:38:27;;;;;;;455.23;62.97;;;0.40;99.90;;;;;;4957495;28;20460;-76
2022/03/06 02:40:56;;;;;;;363.10;93.83;;;0.40;99.90;;;;;;4946432;29;20465;-77
2022/03/06 02:43:24;;;;;;;491.87;80.67;;;0.40;99.90;;;;;;4942992;29;20481;-77
2022/03/06 02:45:52;;;;;;;531.60;80.43;;;0.40;99.90;;;;;;4960394;29;20525;-76
2022/03/06 02:48:21;;;;;;;627.97;73.90;;;0.50;99.90;;;;;;4962077;29;20555;-77
2022/03/06 02:50:51;;;;;;;548.90;73.97;;;0.50;99.90;;;;;;4960350;28;20481;-76
2022/03/06 02:53:22;;;;;;;618.93;88.20;;;0.50;99.90;;;;;;4960256;28;20474;-77
2022/03/06 02:55:52;;;;;;;554.20;80.33;;;0.50;99.90;;;;;;4960365;28;20450;-77
2022/03/06 02:58:21;;;;;;;546.10;81.83;;;0.50;99.90;;;;;;4961825;29;20438;-77
2022/03/06 03:00:50;;;;;;;1334.63;165.47;;;0.40;99.90;;;;;;4958680;28;20473;-77
2022/03/06 03:03:18;;;;;;;527.63;90.60;;;0.40;99.90;;;;;;4949337;29;20526;-76
2022/03/06 03:05:47;;;;;;;483.67;71.53;;;0.40;99.90;;;;;;4940830;29;20481;-76
2022/03/06 03:08:15;;;;;;;617.33;117.00;;;0.50;99.90;;;;;;4940943;29;21055;-77
2022/03/06 03:10:44;;;;;;;1999.90;293.03;;;0.50;99.90;;;;;;4942387;29;20523;-76
2022/03/06 03:13:13;;;;;;;417.93;64.67;;;0.50;99.90;;;;;;4940833;28;20479;-77
2022/03/06 03:15:41;;;;;;;599.03;68.27;;;0.50;99.90;;;;;;4940917;29;20459;-77
2022/03/06 03:18:09;;;;;;;618.80;113.07;;;0.50;99.90;;;;;;4941240;29;20461;-76
2022/03/06 03:20:37;;;;;;;618.03;122.87;;;0.50;99.90;;;;;;4942414;29;20454;-77
2022/03/06 03:23:05;;;;;;;541.67;76.57;;;0.50;99.90;;;;;;4940764;29;20570;-77
2022/03/06 03:25:34;;;;;;;408.10;76.30;;;0.50;99.90;;;;;;4940793;29;20456;-77
2022/03/06 03:28:02;;;;;;;541.10;75.17;;;0.60;99.90;;;;;;4940731;28;20455;-77
2022/03/06 03:30:32;;;;;;;626.37;116.43;;;0.60;99.90;;;;;;4941283;28;20481;-77
2022/03/06 03:33:00;;;;;;;615.20;111.97;;;0.50;99.90;;;;;;4961052;28;20558;-77
2022/03/06 03:35:28;;;;;;;641.27;74.73;;;0.60;99.90;;;;;;4961100;28;20819;-77
2022/03/06 03:37:57;;;;;;;625.63;104.03;;;0.60;99.90;;;;;;4959874;28;20458;-77
2022/03/06 03:40:25;;;;;;;493.60;88.80;;;0.60;99.90;;;;;;4944239;28;20461;-77
2022/03/06 03:42:53;;;;;;;544.27;95.73;;;0.60;99.90;;;;;;4938955;29;20520;-77
2022/03/06 03:45:21;;;;;;;480.43;78.90;;;0.60;99.90;;;;;;4938987;29;20469;-77
2022/03/06 03:47:52;;;;;;;615.40;135.73;;;0.60;99.90;;;;;;4937675;28;20554;-77
2022/03/06 03:50:20;;;;;;;644.83;120.83;;;0.60;99.90;;;;;;4937564;29;20537;-77
2022/03/06 03:52:48;;;;;;;523.63;74.83;;;0.60;99.90;;;;;;4940209;29;20463;-77
2022/03/06 03:55:16;;;;;;;613.60;93.57;;;0.60;99.90;;;;;;4948181;29;20497;-77
2022/03/06 03:57:45;;;;;;;616.07;87.17;;;0.60;99.90;;;;;;4958152;28;20493;-77
2022/03/06 04:00:13;;;;;;;488.97;66.43;;;0.60;99.90;;;;;;4947261;28;20452;-77
2022/03/06 04:02:41;;;;;;;509.50;70.57;;;0.60;99.90;;;;;;4937414;29;20455;-77
2022/03/06 04:05:11;;;;;;;537.13;78.37;;;0.60;99.90;;;;;;4937540;29;21044;-77
2022/03/06 04:07:39;;;;;;;499.90;68.43;;;0.60;99.90;;;;;;4956129;29;20972;-77
2022/03/06 04:10:08;;;;;;;499.73;77.07;;;0.60;99.90;;;;;;4957542;28;20569;-77
2022/03/06 04:12:36;;;;;;;458.63;54.33;;;0.70;99.90;;;;;;4949197;28;20462;-77
2022/03/06 04:15:05;;;;;;;473.10;82.27;;;0.70;99.90;;;;;;4956175;29;20902;-77
2022/03/06 04:17:33;;;;;;;572.27;65.07;;;0.70;99.90;;;;;;4957493;29;20443;-77
2022/03/06 04:20:01;;;;;;;614.97;90.67;;;0.70;99.90;;;;;;4956421;28;21023;-77
2022/03/06 04:22:31;;;;;;;586.63;67.70;;;0.70;99.90;;;;;;4956117;28;20501;-77
2022/03/06 04:24:59;;;;;;;614.83;77.93;;;0.70;99.90;;;;;;4956014;28;20549;-77
2022/03/06 04:27:28;;;;;;;413.77;65.67;;;0.70;99.90;;;;;;4956006;28;20458;-77
2022/03/06 04:29:56;;;;;;;472.67;77.07;;;0.70;99.90;;;;;;4957410;28;20529;-77
2022/03/06 04:32:24;;;;;;;440.60;40.03;;;0.70;99.90;;;;;;4953022;28;20530;-77
2022/03/06 04:34:52;;;;;;;615.47;77.93;;;0.70;99.90;;;;;;4936565;29;20463;-77
2022/03/06 04:37:20;;;;;;;604.90;72.03;;;0.70;99.90;;;;;;4952603;29;20501;-77
2022/03/06 04:39:50;;;;;;;605.07;79.67;;;0.80;99.90;;;;;;4957087;29;20538;-77
2022/03/06 04:42:18;;;;;;;725.03;135.10;;;0.80;99.90;;;;;;4956018;28;20550;-77
2022/03/06 04:44:46;;;;;;;549.87;67.40;;;0.80;99.90;;;;;;4955658;28;20469;-77
2022/03/06 04:47:15;;;;;;;614.10;112.90;;;0.80;99.90;;;;;;4955662;28;20458;-77
2022/03/06 04:49:43;;;;;;;615.37;72.27;;;0.70;99.90;;;;;;4957088;29;20439;-77
2022/03/06 04:52:11;;;;;;;580.17;62.93;;;0.80;99.90;;;;;;4955458;28;20451;-77
2022/03/06 04:54:40;;;;;;;614.80;91.50;;;0.80;99.90;;;;;;4941458;28;20471;-77
2022/03/06 04:57:09;;;;;;;615.20;59.73;;;0.80;99.90;;;;;;4936330;29;20451;-77
2022/03/06 04:59:37;;;;;;;615.43;79.60;;;0.80;99.90;;;;;;4936176;29;20456;-77
2022/03/06 05:02:06;;;;;;;614.43;91.60;;;0.80;99.90;;;;;;4936287;29;20800;-77
2022/03/06 05:04:34;;;;;;;492.77;62.07;;;0.80;99.90;;;;;;4936166;29;20480;-77
2022/03/06 05:07:03;;;;;;;585.27;69.47;;;0.80;99.90;;;;;;4937621;29;20535;-77
2022/03/06 05:09:31;;;;;;;458.13;61.30;;;0.80;99.90;;;;;;4943087;29;20538;-77
2022/03/06 05:11:59;;;;;;;614.10;94.77;;;0.80;99.90;;;;;;4955099;28;20502;-77
2022/03/06 05:14:28;;;;;;;603.73;57.67;;;0.80;99.90;;;;;;4942161;28;20916;-76
2022/03/06 05:16:57;;;;;;;1650.80;114.53;;;0.80;99.90;;;;;;4956528;28;20962;-77
2022/03/06 05:19:25;;;;;;;612.90;54.00;;;0.80;99.90;;;;;;4955132;28;20550;-77
2022/03/06 05:21:53;;;;;;;581.67;70.13;;;0.80;99.90;;;;;;4955038;29;20460;-77
2022/03/06 05:24:21;;;;;;;613.67;57.33;;;0.80;99.90;;;;;;4955444;28;20537;-77
2022/03/06 05:26:49;;;;;;;575.60;41.77;;;0.70;99.90;;;;;;4942667;28;20471;-77
2022/03/06 05:29:18;;;;;;;599.97;64.37;;;0.80;99.90;;;;;;4937498;29;20509;-77
2022/03/06 05:31:48;;;;;;;617.57;94.70;;;0.70;99.90;;;;;;4955093;28;20472;-77
2022/03/06 05:34:16;;;;;;;500.93;51.10;;;0.80;99.90;;;;;;4954513;28;20582;-77
2022/03/06 05:36:44;;;;;;;558.77;45.43;;;0.70;99.90;;;;;;4954740;28;20449;-77
2022/03/06 05:39:12;;;;;;;615.10;85.83;;;0.70;99.90;;;;;;4954805;28;20466;-77
2022/03/06 05:41:40;;;;;;;613.13;61.50;;;0.70;99.90;;;;;;4950508;29;20468;-77
2022/03/06 05:44:09;;;;;;;521.77;55.43;;;0.70;99.90;;;;;;4936992;29;21028;-77
2022/03/06 05:46:37;;;;;;;309.20;46.83;;;0.70;99.90;;;;;;4936626;29;20432;-77
2022/03/06 05:49:12;;;;;;;548.13;45.90;;;0.70;99.90;;;;;;4935452;29;20550;-77
2022/03/06 05:51:42;;;;;;;524.23;33.97;;;0.70;99.90;;;;;;4937247;29;20479;-77
2022/03/06 05:54:10;;;;;;;473.47;38.67;;;0.70;99.90;;;;;;4935252;29;20468;-76
2022/03/06 05:56:40;;;;;;;614.07;58.57;;;0.60;99.90;;;;;;4936756;28;20456;-77
2022/03/06 05:59:08;;;;;;;608.70;56.50;;;0.60;99.90;;;;;;4935936;28;20452;-77
2022/03/06 06:01:38;;;;;;;614.30;83.57;;;0.60;99.90;;;;;;4947532;29;20541;-76
2022/03/06 06:04:07;;;;;;;448.33;53.57;;;0.60;99.90;;;;;;4953915;28;20467;-76
2022/03/06 06:06:36;;;;;;;261.50;23.77;;;0.60;99.90;;;;;;4955451;28;20996;-77
2022/03/06 06:09:04;;;;;;;587.70;70.27;;;0.60;99.90;;;;;;4954230;29;20462;-77
2022/03/06 06:11:33;;;;;;;613.33;76.77;;;0.60;99.90;;;;;;4954327;28;20478;-77
2022/03/06 06:14:01;;;;;;;614.60;61.17;;;0.60;99.90;;;;;;4954404;28;20468;-76
2022/03/06 06:16:30;;;;;;;614.00;68.50;;;0.60;99.90;;;;;;4954282;28;20463;-76
2022/03/06 06:18:58;;;;;;;462.93;61.30;;;0.60;99.90;;;;;;4954759;28;20448;-76
2022/03/06 06:21:28;;;;;;;409.37;35.97;;;0.60;99.90;;;;;;4960121;28;20452;-76
2022/03/06 06:23:56;;;;;;;613.70;85.87;;;0.50;99.90;;;;;;4959754;28;20565;-76
2022/03/06 06:26:24;;;;;;;494.47;40.57;;;0.50;99.90;;;;;;4957234;28;20515;-76
2022/03/06 06:28:56;;;;;;;445.83;29.73;;;0.50;99.90;;;;;;4958797;29;20482;-76
2022/03/06 06:31:25;;;;;;;613.50;73.20;;;0.50;99.90;;;;;;4958610;29;20475;-76
2022/03/06 06:33:54;;;;;;;614.20;98.77;;;0.50;99.90;;;;;;4958714;28;20510;-76
2022/03/06 06:36:22;;;;;;;370.90;28.63;;;0.50;99.90;;;;;;4957914;28;20461;-76
2022/03/06 06:38:53;;;;;;;440.47;49.70;;;0.50;99.90;;;;;;4952730;28;20989;-76
2022/03/06 06:41:21;;;;;;;463.73;45.57;;;0.50;99.90;;;;;;4945294;29;20500;-76
2022/03/06 06:43:49;;;;;;;612.93;61.73;;;0.50;99.90;;;;;;4954937;28;20474;-76
2022/03/06 06:46:18;;;;;;;613.90;61.07;;;0.50;99.90;;;;;;4954335;28;20534;-77
2022/03/06 06:48:46;;;;;;;437.00;33.23;;;0.50;99.90;;;;;;4954774;28;20549;-76
2022/03/06 06:51:14;;;;;;;480.53;49.27;;;0.60;99.90;;;;;;4943544;28;20475;-76
2022/03/06 06:53:42;;;;;;;568.83;42.53;;;0.60;99.90;;;;;;4934640;28;20468;-76
2022/03/06 06:56:12;;;;;;;613.50;56.20;;;0.60;99.90;;;;;;4952675;29;20571;-76
2022/03/06 06:58:40;;;;;;;612.97;92.57;;;0.60;99.90;;;;;;4955382;28;20530;-76
2022/03/06 07:01:08;;;;;;;616.13;103.97;;;0.60;99.90;;;;;;4953827;29;20522;-76
2022/03/06 07:03:37;;;;;;;615.40;101.90;;;0.70;99.90;;;;;;4953717;28;20855;-76
2022/03/06 07:06:05;;;;;;;613.90;53.77;;;0.70;99.90;;;;;;4946547;28;20553;-76
2022/03/06 07:08:34;;;;;;;355.43;41.83;;;0.70;99.90;;;;;;4953545;28;20986;-76
2022/03/06 07:11:02;;;;;;;509.83;33.57;;;0.70;99.90;;;;;;4953355;28;20455;-76
2022/03/06 07:13:32;;;;;;;615.13;44.07;;;0.70;99.90;;;;;;4953519;28;20907;-76
2022/03/06 07:16:00;;;;;;;590.13;39.40;;;0.80;99.90;;;;;;4955240;28;20446;-76
2022/03/06 07:18:28;;;;;;;452.47;38.53;;;0.80;99.90;;;;;;4953045;28;20459;-76
2022/03/06 07:20:56;;;;;;;536.47;48.87;;;0.80;99.90;;;;;;4939481;29;20543;-76
2022/03/06 07:23:24;;;;;;;505.83;37.67;;;0.80;99.90;;;;;;4939463;28;20463;-76
2022/03/06 07:25:52;;;;;;;522.87;34.90;;;0.90;99.90;;;;;;4938208;29;20543;-76
2022/03/06 07:28:21;;;;;;;402.50;32.70;;;0.90;99.90;;;;;;4939315;29;20445;-76
2022/03/06 07:30:50;;;;;;;417.87;37.90;;;1.00;99.90;;;;;;4938091;29;20554;-76
2022/03/06 07:33:19;;;;;;;579.57;43.57;;;1.00;99.90;;;;;;4953650;28;20514;-76
2022/03/06 07:35:47;;;;;;;612.73;69.33;;;1.00;99.90;;;;;;4952274;28;20524;-76
2022/03/06 07:38:16;;;;;;;490.83;46.00;;;1.00;99.90;;;;;;4939163;29;20448;-76
2022/03/06 07:40:44;;;;;;;612.67;74.10;;;1.10;99.90;;;;;;4937802;29;20972;-76
2022/03/06 07:43:12;;;;;;;377.63;30.40;;;1.10;99.90;;;;;;4937684;29;20528;-76
2022/03/06 07:45:40;;;;;;;370.10;26.10;;;1.10;99.90;;;;;;4937724;28;20456;-76
2022/03/06 07:48:10;;;;;;;611.67;68.30;;;1.20;99.90;;;;;;4945481;29;20459;-76
2022/03/06 07:50:38;;;;;;;612.73;53.87;;;1.20;99.90;;;;;;4956750;28;20958;-76
2022/03/06 07:53:06;;;;;;;409.67;32.10;;;1.30;99.90;;;;;;4940949;29;20519;-76
2022/03/06 07:55:35;;;;;;;614.13;90.97;;;1.30;99.90;;;;;;4938868;29;20451;-76
2022/03/06 07:58:03;;;;;;;485.80;72.10;;;1.30;99.90;;;;;;4937574;28;20452;-76
2022/03/06 08:00:32;;;;;;;402.13;34.40;;;1.40;99.90;;;;;;4937522;29;20547;-76
2022/03/06 08:03:01;;;;;;;562.70;49.67;;;1.40;99.90;;;;;;4937239;29;20997;-77
2022/03/06 08:05:31;;;;;;;521.37;52.53;;;1.50;99.90;;;;;;4937390;28;20548;-76
2022/03/06 08:07:59;;;;;;;623.80;56.03;;;1.50;99.90;;;;;;4948447;29;20555;-76
2022/03/06 08:10:27;;;;;;;486.13;63.73;;;1.60;99.90;;;;;;4957887;28;21002;-76
2022/03/06 08:12:55;;;;;;;545.87;50.93;;;1.60;99.90;;;;;;4957875;29;20483;-76
2022/03/06 08:15:24;;;;;;;576.50;48.80;;;1.70;99.90;;;;;;4957512;28;20445;-76
2022/03/06 08:17:52;;;;;;;391.53;47.97;;;1.70;99.90;;;;;;4957134;28;20469;-76
2022/03/06 08:20:20;;;;;;;612.70;54.20;;;1.80;99.90;;;;;;4958441;28;20440;-76
2022/03/06 08:22:50;;;;;;;1042.90;103.50;;;1.80;99.90;;;;;;4957798;28;21073;-76
2022/03/06 08:25:20;;;;;;;470.57;40.60;;;1.90;99.90;;;;;;4944076;28;20488;-76
2022/03/06 08:27:48;;;;;;;613.23;77.60;;;2.00;99.90;;;;;;4936521;29;20541;-77
2022/03/06 08:30:16;;;;;;;370.40;23.83;;;2.00;99.90;;;;;;4946195;29;20538;-76
2022/03/06 08:32:45;;;;;;;427.73;67.10;;;2.00;99.90;;;;;;4955828;28;20472;-77
2022/03/06 08:35:13;;;;;;;511.10;49.70;;;2.10;99.90;;;;;;4955690;28;20458;-77
2022/03/06 08:37:41;;;;;;;443.90;43.90;;;2.10;99.90;;;;;;4949988;29;20891;-77
2022/03/06 08:40:11;;;;;;;850.17;118.07;;;2.10;99.90;;;;;;4955804;28;20451;-77
2022/03/06 08:42:39;;;;;;;659.03;73.10;;;2.30;99.90;;;;;;4957053;28;20438;-77
2022/03/06 08:45:08;;;;;;;269.77;19.17;;;2.40;99.90;;;;;;4955853;28;20455;-77
2022/03/06 08:47:36;;;;;;;539.73;93.67;;;2.50;99.90;;;;;;4957274;28;20446;-76
2022/03/06 08:50:05;;;;;;;364.77;72.70;;;2.50;99.90;;;;;;4955625;29;20489;-76
2022/03/06 08:52:34;;;;;;;657.07;58.50;;;2.60;99.90;;;;;;4953642;29;20534;-76
2022/03/06 08:55:02;;;;;;;560.43;58.60;;;2.80;99.90;;;;;;4955557;28;21031;-76
2022/03/06 08:57:32;;;;;;;495.97;66.23;;;2.90;99.90;;;;;;4956850;28;20445;-76
2022/03/06 09:00:00;;;;;;;767.20;69.70;;;3.00;99.90;;;;;;4955791;28;20462;-76
2022/03/06 09:02:31;;;;;;;807.63;84.33;;;3.10;99.90;;;;;;4956595;29;20493;-76
2022/03/06 09:04:59;;;;;;;709.93;150.13;;;3.20;99.90;;;;;;4955446;29;21025;-75
2022/03/06 09:07:28;;;;;;;765.90;161.30;;;3.30;99.90;;;;;;4955467;28;20458;-76
2022/03/06 09:10:01;;;;;;;609.27;120.63;;;3.40;99.90;;;;;;4936907;29;20459;-76
2022/03/06 09:12:40;;;;;;;765.33;123.93;;;3.40;99.90;;;;;;4954984;28;20470;-76
2022/03/06 09:15:09;;;;;;;765.07;121.57;;;3.40;99.90;;;;;;4955231;28;20959;-76
2022/03/06 09:17:38;;;;;;;765.67;143.77;;;3.40;99.90;;;;;;4955290;28;20520;-76
2022/03/06 09:20:07;;;;;;;765.83;116.47;;;3.50;99.90;;;;;;4954572;28;20454;-75
2022/03/06 09:22:36;;;;;;;764.97;156.00;;;3.50;99.90;;;;;;4937406;29;20459;-76
2022/03/06 09:25:05;;;;;;;765.43;125.67;;;3.50;99.90;;;;;;4935980;29;20448;-76
2022/03/06 09:27:33;;;;;;;767.83;161.93;;;3.50;99.90;;;;;;4935867;29;20469;-76
2022/03/06 09:30:02;;;;;;;919.07;149.97;;;3.60;99.90;;;;;;4936020;29;20817;-76
2022/03/06 09:32:31;;;;;;;766.93;162.17;;;3.60;99.90;;;;;;4935945;29;20494;-76
2022/03/06 09:34:59;;;;;;;462.17;86.33;;;3.60;99.90;;;;;;4938983;29;20469;-76
2022/03/06 09:37:27;;;;;;;773.07;172.77;;;3.60;99.90;;;;;;4937413;28;20513;-76
2022/03/06 09:39:55;;;;;;;765.83;116.70;;;3.60;99.90;;;;;;4939874;29;20446;-75
2022/03/06 09:42:23;;;;;;;584.87;87.27;;;3.60;99.90;;;;;;4954938;28;20546;-75
2022/03/06 09:44:52;;;;;;;512.50;93.20;;;3.70;99.90;;;;;;4950123;29;20486;-75
2022/03/06 09:47:24;;;;;;;608.13;153.00;;;3.70;99.90;;;;;;4936737;29;20456;-75
2022/03/06 09:49:52;;;;;;;946.03;147.00;;;3.70;99.90;;;;;;4935463;29;20959;-75
2022/03/06 09:52:20;;;;;;;765.97;142.10;;;3.80;99.90;;;;;;4935266;29;20546;-75
2022/03/06 09:54:48;;;;;;;727.00;145.30;;;3.80;99.90;;;;;;4935290;28;20580;-76
2022/03/06 09:57:19;;;;;;;125.10;46.33;;;3.90;99.90;;;;;;4935343;29;20448;-75
2022/03/06 09:59:48;;;;;;;134.63;33.03;;;3.90;99.90;;;;;;4935359;29;20504;-76
2022/03/06 10:02:17;;;;;;;12.73;10.13;;;3.90;99.90;;;;;;4936737;29;20435;-76
2022/03/06 10:04:47;;;;;;;9.20;8.37;;;3.90;99.90;;;;;;4936374;29;20993;-76
2022/03/06 10:07:17;;;;;;;9.07;6.70;;;4.00;99.90;;;;;;4936993;29;20458;-76
2022/03/06 10:09:46;;;;;;;8.60;7.80;;;4.00;99.90;;;;;;4935083;29;20499;-76
2022/03/06 10:12:22;;;;;;;8.73;7.57;;;4.10;99.90;;;;;;4944957;29;20443;-76
2022/03/06 10:14:52;;;;;;;8.03;7.23;;;4.10;99.90;;;;;;4948731;28;20485;-77
2022/03/06 10:17:22;;;;;;;8.50;7.70;;;4.10;99.90;;;;;;4936759;29;20863;-76
2022/03/06 10:19:57;;;;;;;10.87;9.60;;;4.10;99.90;;;;;;4935070;29;20554;-76
2022/03/06 10:22:28;;;;;;;9.10;8.10;;;4.10;99.90;;;;;;4955145;29;20446;-76
2022/03/06 10:24:59;;;;;;;9.53;8.23;;;4.10;99.90;;;;;;4955936;29;20486;-76
2022/03/06 10:27:44;;;;;;;8.60;7.70;;;4.20;99.90;;;;;;4955849;28;20425;-76
2022/03/06 10:30:28;;;;;;;9.17;8.20;;;4.20;99.90;;;;;;4954309;28;20922;-77
2022/03/06 10:32:58;;;;;;;9.97;7.70;;;4.20;99.90;;;;;;4943866;28;20479;-77
2022/03/06 10:35:32;;;;;;;9.97;9.00;;;4.20;99.90;;;;;;4936837;29;20465;-76
2022/03/06 10:38:01;;;;;;;12.10;8.73;;;4.20;99.90;;;;;;4955273;29;20498;-76
2022/03/06 10:40:34;;;;;;;9.40;8.30;;;4.20;99.90;;;;;;4954014;28;20450;-76
2022/03/06 10:43:16;;;;;;;10.53;9.47;;;4.20;99.90;;;;;;4955225;28;20985;-76
2022/03/06 10:45:44;;;;;;;9.53;8.53;;;4.20;99.90;;;;;;4954076;29;20544;-76
2022/03/06 10:48:14;;;;;;;12.00;10.90;;;4.30;99.90;;;;;;4954064;29;20450;-77
2022/03/06 10:50:44;;;;;;;8.73;7.93;;;4.20;99.90;;;;;;4948914;28;20447;-77
2022/03/06 10:53:20;;;;;;;7.40;6.70;;;4.20;99.90;;;;;;4939034;29;21094;-77
2022/03/06 10:55:49;;;;;;;7.93;7.10;;;4.20;99.90;;;;;;4938803;29;20506;-77
2022/03/06 10:58:19;;;;;;;7.73;6.97;;;4.30;99.90;;;;;;4938414;29;20845;-77
2022/03/06 11:00:47;;;;;;;8.63;7.93;;;4.30;99.90;;;;;;4938385;29;20453;-77
2022/03/06 11:03:16;;;;;;;8.53;7.73;;;4.30;99.90;;;;;;4938309;29;20467;-77
2022/03/06 11:05:47;;;;;;;10.03;7.50;;;4.40;99.90;;;;;;4939608;29;20441;-78
2022/03/06 11:08:16;;;;;;;7.53;6.83;;;4.40;99.90;;;;;;4938426;29;20452;-78
2022/03/06 11:10:45;;;;;;;6.80;6.13;;;4.40;99.90;;;;;;4938249;29;20474;-78
2022/03/06 11:13:15;;;;;;;7.43;6.73;;;4.50;99.90;;;;;;4938168;29;20509;-77
2022/03/06 11:15:43;;;;;;;7.03;6.33;;;4.60;99.90;;;;;;4939905;28;20878;-77
2022/03/06 11:18:12;;;;;;;7.40;6.70;;;4.60;99.90;;;;;;4942120;29;20509;-77
2022/03/06 11:20:41;;;;;;;8.00;7.30;;;4.60;99.90;;;;;;4950430;28;20455;-76
2022/03/06 11:23:21;;;;;;;7.50;6.80;;;4.60;99.90;;;;;;4938498;29;20467;-77
2022/03/06 11:26:07;;;;;;;8.27;6.70;;;4.70;99.90;;;;;;4938293;29;20505;-77
2022/03/06 11:28:47;;;;;;;7.40;6.70;;;4.70;99.90;;;;;;4939622;29;20519;-77
2022/03/06 11:31:16;;;;;;;7.30;6.37;;;4.70;99.90;;;;;;4946428;29;20554;-77
2022/03/06 11:33:45;;;;;;;6.43;5.80;;;4.80;99.90;;;;;;4957182;28;20478;-77
2022/03/06 11:36:20;;;;;;;7.00;6.30;;;4.80;99.90;;;;;;4946623;28;20534;-77
2022/03/06 11:38:51;;;;;;;7.97;7.27;;;4.80;99.90;;;;;;4947118;29;20445;-77
2022/03/06 11:41:20;;;;;;;7.77;6.90;;;4.90;99.90;;;;;;4947065;29;20439;-76
2022/03/06 11:43:49;;;;;;;7.33;6.73;;;4.90;99.90;;;;;;4948684;29;20499;-77
2022/03/06 11:46:19;;;;;;;7.37;6.67;;;4.90;99.90;;;;;;4966899;29;20545;-77
2022/03/06 11:49:11;;;;;;;13.97;8.37;;;4.90;99.90;;;;;;4967636;28;20454;-76
2022/03/06 11:51:45;;;;;;;7.67;6.97;;;5.00;99.90;;;;;;4967665;29;20458;-76
2022/03/06 11:54:17;;;;;;;8.30;6.40;;;5.00;99.90;;;;;;4969127;28;20491;-76
2022/03/06 11:56:59;;;;;;;7.30;6.63;;;5.00;99.90;;;;;;4965344;29;20423;-76
2022/03/06 11:59:33;;;;;;;7.80;6.67;;;5.00;99.90;;;;;;4967363;29;20427;-76
2022/03/06 12:02:07;;;;;;;7.00;6.00;;;5.00;99.90;;;;;;4947645;29;20470;-76
2022/03/06 12:04:39;;;;;;;7.60;6.90;;;5.10;99.90;;;;;;4962597;28;20521;-76
2022/03/06 12:07:09;;;;;;;7.77;7.07;;;5.10;99.70;;;;;;4939553;28;20450;-75
2022/03/06 12:09:40;;;;;;;7.43;6.83;;;5.10;99.80;;;;;;4938463;29;20902;-76
2022/03/06 12:12:11;;;;;;;8.23;7.53;;;5.20;99.90;;;;;;4938327;29;20953;-77
2022/03/06 12:14:40;;;;;;;7.47;6.70;;;5.20;99.70;;;;;;4938823;29;20553;-76
2022/03/06 12:17:35;;;;;;;7.33;6.63;;;5.20;99.80;;;;;;4938534;29;20823;-76
2022/03/06 12:20:26;;;;;;;8.37;7.57;;;5.30;99.90;;;;;;4938121;29;20945;-76
2022/03/06 12:23:04;;;;;;;7.23;6.57;;;5.30;99.90;;;;;;4958191;28;20473;-77
2022/03/06 12:25:35;;;;;;;10.90;7.03;;;5.30;99.90;;;;;;4956377;28;20857;-77
2022/03/06 12:28:37;;;;;;;7.47;6.00;;;5.40;99.90;;;;;;4956369;29;20542;-77
2022/03/06 12:31:31;;;;;;;6.17;5.57;;;5.50;99.80;;;;;;4957059;28;20845;-77
2022/03/06 12:34:01;;;;;;;7.33;6.63;;;5.50;99.60;;;;;;4947225;28;20490;-76
2022/03/06 12:36:30;;;;;;;6.77;6.07;;;5.60;99.70;;;;;;4949431;29;20494;-77
2022/03/06 12:39:02;;;;;;;6.07;5.47;;;5.60;99.70;;;;;;4956171;28;20454;-77
2022/03/06 12:41:33;;;;;;;5.90;5.30;;;5.60;99.30;;;;;;4957451;28;20518;-77